Aviation Digital Data Service (ADDS)

Output produced by METARs form (1739 UTC 25 July 2014)
found at http://aviationweather.gov/adds/metars/
 
KLCH 251653Z VRB03KT 6SM HZ FEW025 31/24 A3003 RMK AO2 SLP176 T03110239